sensor_id;sensor_type;location;lat;lon;timestamp;pressure;altitude;pressure_sealevel;temperature;humidity
70930;BME280;58588;48.102;19.682;2023-04-10T00:00:25;100204.00;;;2.63;100.00
70930;BME280;58588;48.102;19.682;2023-04-10T00:03:28;100206.09;;;2.71;100.00
70930;BME280;58588;48.102;19.682;2023-04-10T00:06:30;100192.41;;;2.76;100.00
70930;BME280;58588;48.102;19.682;2023-04-10T00:09:33;100195.22;;;2.74;100.00
70930;BME280;58588;48.102;19.682;2023-04-10T00:12:35;100197.66;;;2.77;100.00
70930;BME280;58588;48.102;19.682;2023-04-10T00:15:37;100194.50;;;2.72;100.00
70930;BME280;58588;48.102;19.682;2023-04-10T00:18:41;100200.88;;;2.69;100.00
70930;BME280;58588;48.102;19.682;2023-04-10T00:21:43;100203.06;;;2.64;100.00
70930;BME280;58588;48.102;19.682;2023-04-10T00:24:45;100194.84;;;2.67;100.00
70930;BME280;58588;48.102;19.682;2023-04-10T00:27:47;100197.75;;;2.76;100.00
70930;BME280;58588;48.102;19.682;2023-04-10T00:30:49;100196.06;;;2.75;100.00
70930;BME280;58588;48.102;19.682;2023-04-10T00:33:52;100193.28;;;2.65;100.00
70930;BME280;58588;48.102;19.682;2023-04-10T00:36:54;100199.06;;;2.59;100.00
70930;BME280;58588;48.102;19.682;2023-04-10T00:39:56;100190.69;;;2.63;100.00
70930;BME280;58588;48.102;19.682;2023-04-10T00:42:59;100191.81;;;2.61;100.00
70930;BME280;58588;48.102;19.682;2023-04-10T00:46:01;100193.03;;;2.68;100.00
70930;BME280;58588;48.102;19.682;2023-04-10T00:49:07;100180.81;;;2.65;100.00
70930;BME280;58588;48.102;19.682;2023-04-10T00:52:10;100180.06;;;2.63;100.00
70930;BME280;58588;48.102;19.682;2023-04-10T00:55:13;100178.63;;;2.59;100.00
70930;BME280;58588;48.102;19.682;2023-04-10T00:58:15;100176.06;;;2.58;100.00
70930;BME280;58588;48.102;19.682;2023-04-10T01:01:17;100175.81;;;2.50;100.00
70930;BME280;58588;48.102;19.682;2023-04-10T01:04:22;100173.50;;;2.45;100.00
70930;BME280;58588;48.102;19.682;2023-04-10T01:07:32;100171.81;;;2.44;100.00
70930;BME280;58588;48.102;19.682;2023-04-10T01:10:41;100185.34;;;2.41;100.00
70930;BME280;58588;48.102;19.682;2023-04-10T01:13:52;100183.25;;;2.33;100.00
70930;BME280;58588;48.102;19.682;2023-04-10T01:16:59;100168.81;;;2.13;100.00
70930;BME280;58588;48.102;19.682;2023-04-10T01:20:08;100166.28;;;2.12;100.00
70930;BME280;58588;48.102;19.682;2023-04-10T01:27:03;100165.31;;;2.13;100.00
70930;BME280;58588;48.102;19.682;2023-04-10T01:30:16;100164.41;;;2.01;100.00
70930;BME280;58588;48.102;19.682;2023-04-10T01:33:21;100171.88;;;1.96;100.00
70930;BME280;58588;48.102;19.682;2023-04-10T01:36:30;100163.13;;;1.83;100.00
70930;BME280;58588;48.102;19.682;2023-04-10T01:39:35;100164.09;;;1.82;100.00
70930;BME280;58588;48.102;19.682;2023-04-10T01:42:40;100162.22;;;1.71;100.00
70930;BME280;58588;48.102;19.682;2023-04-10T01:45:47;100156.63;;;1.63;100.00
70930;BME280;58588;48.102;19.682;2023-04-10T01:48:52;100161.44;;;1.58;100.00
70930;BME280;58588;48.102;19.682;2023-04-10T01:51:56;100155.19;;;1.46;100.00
70930;BME280;58588;48.102;19.682;2023-04-10T01:55:01;100155.13;;;1.35;100.00
70930;BME280;58588;48.102;19.682;2023-04-10T01:58:04;100161.16;;;1.37;100.00
70930;BME280;58588;48.102;19.682;2023-04-10T02:01:08;100157.91;;;1.33;100.00
70930;BME280;58588;48.102;19.682;2023-04-10T02:04:10;100156.22;;;1.20;100.00
70930;BME280;58588;48.102;19.682;2023-04-10T02:07:17;100154.75;;;1.16;100.00
70930;BME280;58588;48.102;19.682;2023-04-10T02:10:24;100149.25;;;1.06;100.00
70930;BME280;58588;48.102;19.682;2023-04-10T02:13:29;100158.81;;;0.96;100.00
70930;BME280;58588;48.102;19.682;2023-04-10T02:16:37;100160.44;;;0.86;100.00
70930;BME280;58588;48.102;19.682;2023-04-10T02:19:40;100165.94;;;0.83;100.00
70930;BME280;58588;48.102;19.682;2023-04-10T02:22:43;100166.50;;;0.75;100.00
70930;BME280;58588;48.102;19.682;2023-04-10T02:25:46;100172.44;;;0.78;100.00
70930;BME280;58588;48.102;19.682;2023-04-10T02:28:48;100172.75;;;0.74;100.00
70930;BME280;58588;48.102;19.682;2023-04-10T02:31:51;100164.16;;;0.70;100.00
70930;BME280;58588;48.102;19.682;2023-04-10T02:34:53;100164.88;;;0.60;100.00
70930;BME280;58588;48.102;19.682;2023-04-10T02:37:56;100164.38;;;0.67;100.00
70930;BME280;58588;48.102;19.682;2023-04-10T02:40:58;100161.91;;;0.64;100.00
70930;BME280;58588;48.102;19.682;2023-04-10T02:44:00;100167.22;;;0.51;100.00
70930;BME280;58588;48.102;19.682;2023-04-10T02:47:03;100172.53;;;0.39;100.00
70930;BME280;58588;48.102;19.682;2023-04-10T02:50:06;100171.38;;;0.43;100.00
70930;BME280;58588;48.102;19.682;2023-04-10T02:53:08;100174.88;;;0.43;100.00
70930;BME280;58588;48.102;19.682;2023-04-10T02:56:10;100172.53;;;0.39;100.00
70930;BME280;58588;48.102;19.682;2023-04-10T02:59:12;100166.25;;;0.40;100.00
70930;BME280;58588;48.102;19.682;2023-04-10T03:02:15;100161.59;;;0.31;100.00
70930;BME280;58588;48.102;19.682;2023-04-10T03:05:17;100158.84;;;0.32;100.00
70930;BME280;58588;48.102;19.682;2023-04-10T03:08:22;100160.94;;;0.27;100.00
70930;BME280;58588;48.102;19.682;2023-04-10T03:11:24;100160.09;;;0.26;100.00
70930;BME280;58588;48.102;19.682;2023-04-10T03:14:26;100166.78;;;0.32;100.00
70930;BME280;58588;48.102;19.682;2023-04-10T03:17:30;100161.69;;;0.29;100.00
70930;BME280;58588;48.102;19.682;2023-04-10T03:20:32;100157.63;;;0.23;100.00
70930;BME280;58588;48.102;19.682;2023-04-10T03:23:34;100158.81;;;0.19;100.00
70930;BME280;58588;48.102;19.682;2023-04-10T03:26:36;100165.09;;;0.18;100.00
70930;BME280;58588;48.102;19.682;2023-04-10T03:29:38;100158.28;;;0.14;100.00
70930;BME280;58588;48.102;19.682;2023-04-10T03:32:42;100162.84;;;0.12;100.00
70930;BME280;58588;48.102;19.682;2023-04-10T03:35:44;100162.94;;;0.11;100.00
70930;BME280;58588;48.102;19.682;2023-04-10T03:38:46;100167.06;;;0.02;100.00
70930;BME280;58588;48.102;19.682;2023-04-10T03:41:49;100166.75;;;0.07;100.00
70930;BME280;58588;48.102;19.682;2023-04-10T03:44:51;100162.59;;;0.03;100.00
70930;BME280;58588;48.102;19.682;2023-04-10T03:47:54;100172.25;;;0.04;100.00
70930;BME280;58588;48.102;19.682;2023-04-10T03:50:56;100175.56;;;0.07;100.00
70930;BME280;58588;48.102;19.682;2023-04-10T03:53:58;100167.59;;;0.07;100.00
70930;BME280;58588;48.102;19.682;2023-04-10T03:57:00;100165.25;;;0.03;100.00
70930;BME280;58588;48.102;19.682;2023-04-10T04:00:03;100165.13;;;0.04;100.00
70930;BME280;58588;48.102;19.682;2023-04-10T04:03:06;100165.44;;;-0.01;100.00
70930;BME280;58588;48.102;19.682;2023-04-10T04:06:08;100163.44;;;0.03;100.00
70930;BME280;58588;48.102;19.682;2023-04-10T04:09:10;100166.53;;;0.10;100.00
70930;BME280;58588;48.102;19.682;2023-04-10T04:12:13;100168.63;;;0.05;100.00
70930;BME280;58588;48.102;19.682;2023-04-10T04:15:15;100172.91;;;0.07;100.00
70930;BME280;58588;48.102;19.682;2023-04-10T04:18:19;100167.38;;;0.10;100.00
70930;BME280;58588;48.102;19.682;2023-04-10T04:21:21;100161.44;;;0.07;100.00
70930;BME280;58588;48.102;19.682;2023-04-10T04:24:23;100159.28;;;-0.01;100.00
70930;BME280;58588;48.102;19.682;2023-04-10T04:27:25;100166.75;;;0.07;100.00
70930;BME280;58588;48.102;19.682;2023-04-10T04:30:27;100168.34;;;0.22;100.00
70930;BME280;58588;48.102;19.682;2023-04-10T04:33:30;100167.81;;;0.17;100.00
70930;BME280;58588;48.102;19.682;2023-04-10T04:36:32;100164.19;;;0.18;100.00
70930;BME280;58588;48.102;19.682;2023-04-10T04:39:34;100165.84;;;0.33;100.00
70930;BME280;58588;48.102;19.682;2023-04-10T04:42:36;100169.34;;;0.46;100.00
70930;BME280;58588;48.102;19.682;2023-04-10T04:45:38;100176.16;;;0.63;100.00
70930;BME280;58588;48.102;19.682;2023-04-10T04:48:42;100174.75;;;0.83;100.00
70930;BME280;58588;48.102;19.682;2023-04-10T04:51:44;100180.91;;;0.96;100.00
70930;BME280;58588;48.102;19.682;2023-04-10T04:54:46;100177.63;;;0.93;100.00
70930;BME280;58588;48.102;19.682;2023-04-10T04:57:48;100185.03;;;1.00;100.00
70930;BME280;58588;48.102;19.682;2023-04-10T05:00:50;100184.41;;;1.10;100.00
70930;BME280;58588;48.102;19.682;2023-04-10T05:03:54;100191.50;;;1.22;100.00
70930;BME280;58588;48.102;19.682;2023-04-10T05:06:56;100189.44;;;1.38;100.00
70930;BME280;58588;48.102;19.682;2023-04-10T05:09:58;100189.00;;;1.31;100.00
70930;BME280;58588;48.102;19.682;2023-04-10T05:13:00;100198.31;;;1.50;100.00
70930;BME280;58588;48.102;19.682;2023-04-10T05:16:02;100197.94;;;1.67;100.00
70930;BME280;58588;48.102;19.682;2023-04-10T05:19:05;100197.56;;;1.84;100.00
70930;BME280;58588;48.102;19.682;2023-04-10T05:22:07;100204.53;;;1.98;100.00
70930;BME280;58588;48.102;19.682;2023-04-10T05:25:27;100202.78;;;2.10;100.00
70930;BME280;58588;48.102;19.682;2023-04-10T05:28:29;100192.84;;;2.36;100.00
70930;BME280;58588;48.102;19.682;2023-04-10T05:31:31;100198.56;;;2.54;100.00
70930;BME280;58588;48.102;19.682;2023-04-10T05:34:35;100196.44;;;2.70;100.00
70930;BME280;58588;48.102;19.682;2023-04-10T05:37:37;100190.88;;;2.95;100.00
70930;BME280;58588;48.102;19.682;2023-04-10T05:40:39;100190.28;;;3.03;100.00
70930;BME280;58588;48.102;19.682;2023-04-10T05:43:41;100196.22;;;3.18;100.00
70930;BME280;58588;48.102;19.682;2023-04-10T05:46:43;100185.06;;;3.35;100.00
70930;BME280;58588;48.102;19.682;2023-04-10T05:49:46;100189.66;;;3.44;100.00
70930;BME280;58588;48.102;19.682;2023-04-10T05:52:48;100186.63;;;3.60;100.00
70930;BME280;58588;48.102;19.682;2023-04-10T05:55:50;100180.47;;;3.92;100.00
70930;BME280;58588;48.102;19.682;2023-04-10T05:58:54;100181.75;;;4.09;100.00
70930;BME280;58588;48.102;19.682;2023-04-10T06:01:56;100176.03;;;4.34;100.00
70930;BME280;58588;48.102;19.682;2023-04-10T06:04:59;100175.72;;;4.69;100.00
70930;BME280;58588;48.102;19.682;2023-04-10T06:08:02;100172.13;;;4.80;100.00
70930;BME280;58588;48.102;19.682;2023-04-10T06:11:04;100169.47;;;4.80;100.00
70930;BME280;58588;48.102;19.682;2023-04-10T06:14:06;100181.69;;;4.82;100.00
70930;BME280;58588;48.102;19.682;2023-04-10T06:17:08;100179.50;;;4.97;100.00
70930;BME280;58588;48.102;19.682;2023-04-10T06:20:12;100176.41;;;5.23;100.00
70930;BME280;58588;48.102;19.682;2023-04-10T06:23:14;100180.47;;;5.27;100.00
70930;BME280;58588;48.102;19.682;2023-04-10T06:26:16;100181.75;;;5.32;100.00
70930;BME280;58588;48.102;19.682;2023-04-10T06:29:18;100182.59;;;5.33;100.00
70930;BME280;58588;48.102;19.682;2023-04-10T06:32:20;100180.75;;;5.24;100.00
70930;BME280;58588;48.102;19.682;2023-04-10T06:35:24;100178.00;;;5.35;100.00
70930;BME280;58588;48.102;19.682;2023-04-10T06:38:26;100181.41;;;5.56;100.00
70930;BME280;58588;48.102;19.682;2023-04-10T06:41:28;100182.31;;;5.76;100.00
70930;BME280;58588;48.102;19.682;2023-04-10T06:44:30;100181.53;;;5.95;100.00
70930;BME280;58588;48.102;19.682;2023-04-10T06:47:33;100180.13;;;5.91;100.00
70930;BME280;58588;48.102;19.682;2023-04-10T06:50:36;100179.00;;;6.13;100.00
70930;BME280;58588;48.102;19.682;2023-04-10T06:53:38;100177.88;;;6.06;100.00
70930;BME280;58588;48.102;19.682;2023-04-10T06:56:40;100176.19;;;6.05;100.00
70930;BME280;58588;48.102;19.682;2023-04-10T06:59:43;100183.66;;;6.40;100.00
70930;BME280;58588;48.102;19.682;2023-04-10T07:02:45;100178.97;;;6.52;100.00
70930;BME280;58588;48.102;19.682;2023-04-10T07:05:48;100178.09;;;6.80;100.00
70930;BME280;58588;48.102;19.682;2023-04-10T07:08:50;100172.38;;;7.03;100.00
70930;BME280;58588;48.102;19.682;2023-04-10T07:11:52;100166.28;;;7.10;100.00
70930;BME280;58588;48.102;19.682;2023-04-10T07:14:54;100166.78;;;7.23;100.00
70930;BME280;58588;48.102;19.682;2023-04-10T07:17:56;100159.38;;;7.45;100.00
70930;BME280;58588;48.102;19.682;2023-04-10T07:21:00;100147.47;;;7.75;100.00
70930;BME280;58588;48.102;19.682;2023-04-10T07:24:05;100146.91;;;7.89;100.00
70930;BME280;58588;48.102;19.682;2023-04-10T07:27:11;100153.84;;;8.10;100.00
70930;BME280;58588;48.102;19.682;2023-04-10T07:30:13;100148.84;;;8.15;100.00
70930;BME280;58588;48.102;19.682;2023-04-10T07:33:15;100150.47;;;8.43;100.00
70930;BME280;58588;48.102;19.682;2023-04-10T07:36:19;100148.63;;;8.44;100.00
70930;BME280;58588;48.102;19.682;2023-04-10T07:39:21;100154.16;;;8.42;100.00
70930;BME280;58588;48.102;19.682;2023-04-10T07:42:25;100158.84;;;8.40;100.00
70930;BME280;58588;48.102;19.682;2023-04-10T07:45:30;100153.50;;;8.66;100.00
70930;BME280;58588;48.102;19.682;2023-04-10T07:48:32;100147.44;;;8.90;100.00
70930;BME280;58588;48.102;19.682;2023-04-10T07:51:39;100144.63;;;9.00;100.00
70930;BME280;58588;48.102;19.682;2023-04-10T07:54:41;100140.59;;;9.38;100.00
70930;BME280;58588;48.102;19.682;2023-04-10T07:57:43;100133.38;;;9.47;100.00
70930;BME280;58588;48.102;19.682;2023-04-10T08:00:46;100130.22;;;9.59;100.00
70930;BME280;58588;48.102;19.682;2023-04-10T08:03:48;100136.19;;;9.87;99.95
70930;BME280;58588;48.102;19.682;2023-04-10T08:06:51;100138.09;;;10.11;96.45
70930;BME280;58588;48.102;19.682;2023-04-10T08:09:53;100126.28;;;10.86;88.22
70930;BME280;58588;48.102;19.682;2023-04-10T08:12:55;100134.69;;;10.99;86.30
70930;BME280;58588;48.102;19.682;2023-04-10T08:15:59;100135.66;;;11.06;87.08
70930;BME280;58588;48.102;19.682;2023-04-10T08:19:02;100115.00;;;11.30;86.75
70930;BME280;58588;48.102;19.682;2023-04-10T08:22:05;100118.44;;;11.86;86.54
70930;BME280;58588;48.102;19.682;2023-04-10T08:25:08;100118.31;;;12.48;86.41
70930;BME280;58588;48.102;19.682;2023-04-10T08:28:10;100121.47;;;12.51;83.68
70930;BME280;58588;48.102;19.682;2023-04-10T08:31:12;100117.19;;;13.24;76.74
70930;BME280;58588;48.102;19.682;2023-04-10T08:34:15;100113.84;;;13.22;75.32
70930;BME280;58588;48.102;19.682;2023-04-10T08:37:19;100110.00;;;13.31;75.05
70930;BME280;58588;48.102;19.682;2023-04-10T08:40:21;100116.16;;;12.96;74.40
70930;BME280;58588;48.102;19.682;2023-04-10T08:43:23;100114.63;;;12.93;72.77
70930;BME280;58588;48.102;19.682;2023-04-10T08:46:25;100116.50;;;12.78;72.38
70930;BME280;58588;48.102;19.682;2023-04-10T08:49:30;100108.56;;;12.76;74.80
70930;BME280;58588;48.102;19.682;2023-04-10T08:52:42;100115.94;;;12.68;77.00
70930;BME280;58588;48.102;19.682;2023-04-10T08:55:45;100112.72;;;12.64;77.18
70930;BME280;58588;48.102;19.682;2023-04-10T08:58:50;100116.69;;;12.39;76.58
70930;BME280;58588;48.102;19.682;2023-04-10T09:01:52;100115.03;;;12.52;79.81
70930;BME280;58588;48.102;19.682;2023-04-10T09:04:56;100114.28;;;12.44;78.86
70930;BME280;58588;48.102;19.682;2023-04-10T09:08:01;100107.44;;;12.33;79.05
70930;BME280;58588;48.102;19.682;2023-04-10T09:11:04;100102.53;;;12.37;79.58
70930;BME280;58588;48.102;19.682;2023-04-10T09:14:19;100099.34;;;12.10;79.27
70930;BME280;58588;48.102;19.682;2023-04-10T09:17:22;100101.09;;;12.03;79.98
70930;BME280;58588;48.102;19.682;2023-04-10T09:20:25;100093.00;;;12.03;83.03
70930;BME280;58588;48.102;19.682;2023-04-10T09:23:29;100100.03;;;12.12;83.86
70930;BME280;58588;48.102;19.682;2023-04-10T09:26:32;100101.91;;;12.12;86.37
70930;BME280;58588;48.102;19.682;2023-04-10T09:29:44;100096.50;;;11.80;84.62
70930;BME280;58588;48.102;19.682;2023-04-10T09:32:50;100097.00;;;11.84;86.97
70930;BME280;58588;48.102;19.682;2023-04-10T09:35:53;100093.31;;;11.77;92.00
70930;BME280;58588;48.102;19.682;2023-04-10T09:38:57;100092.25;;;11.86;94.94
70930;BME280;58588;48.102;19.682;2023-04-10T09:42:05;100090.41;;;12.10;97.71
70930;BME280;58588;48.102;19.682;2023-04-10T09:45:16;100084.53;;;12.44;97.68
70930;BME280;58588;48.102;19.682;2023-04-10T09:48:22;100067.13;;;12.61;95.08
70930;BME280;58588;48.102;19.682;2023-04-10T09:51:27;100076.75;;;13.08;89.15
70930;BME280;58588;48.102;19.682;2023-04-10T09:54:35;100091.38;;;13.43;78.78
70930;BME280;58588;48.102;19.682;2023-04-10T09:57:38;100089.91;;;13.41;79.29
70930;BME280;58588;48.102;19.682;2023-04-10T10:00:41;100084.78;;;13.31;77.92
70930;BME280;58588;48.102;19.682;2023-04-10T10:03:44;100086.00;;;12.99;79.60
70930;BME280;58588;48.102;19.682;2023-04-10T10:06:47;100089.25;;;12.79;81.66
70930;BME280;58588;48.102;19.682;2023-04-10T10:09:51;100079.91;;;12.82;80.27
70930;BME280;58588;48.102;19.682;2023-04-10T10:12:55;100076.47;;;12.88;84.72
70930;BME280;58588;48.102;19.682;2023-04-10T10:16:03;100075.56;;;12.96;87.21
70930;BME280;58588;48.102;19.682;2023-04-10T10:19:12;100063.97;;;13.02;87.20
70930;BME280;58588;48.102;19.682;2023-04-10T10:22:18;100068.53;;;13.01;91.99
70930;BME280;58588;48.102;19.682;2023-04-10T10:25:24;100061.16;;;13.25;89.71
70930;BME280;58588;48.102;19.682;2023-04-10T10:28:27;100068.31;;;13.47;95.65
70930;BME280;58588;48.102;19.682;2023-04-10T10:31:32;100061.41;;;13.81;92.09
70930;BME280;58588;48.102;19.682;2023-04-10T10:34:36;100055.53;;;13.99;82.66
70930;BME280;58588;48.102;19.682;2023-04-10T10:37:39;100049.25;;;13.77;84.80
70930;BME280;58588;48.102;19.682;2023-04-10T10:40:50;100058.81;;;14.15;76.40
70930;BME280;58588;48.102;19.682;2023-04-10T10:44:07;100048.09;;;14.07;74.60
70930;BME280;58588;48.102;19.682;2023-04-10T10:47:17;100039.59;;;14.66;70.76
70930;BME280;58588;48.102;19.682;2023-04-10T10:50:20;100033.31;;;14.94;74.81
70930;BME280;58588;48.102;19.682;2023-04-10T10:53:35;100038.22;;;14.77;72.02
70930;BME280;58588;48.102;19.682;2023-04-10T10:56:46;100035.34;;;14.57;64.95
70930;BME280;58588;48.102;19.682;2023-04-10T10:59:57;100030.06;;;14.77;62.83
70930;BME280;58588;48.102;19.682;2023-04-10T11:03:30;100036.09;;;14.72;64.96
70930;BME280;58588;48.102;19.682;2023-04-10T11:06:48;100034.19;;;14.66;69.92
70930;BME280;58588;48.102;19.682;2023-04-10T11:09:56;100025.34;;;14.30;68.18
70930;BME280;58588;48.102;19.682;2023-04-10T11:13:18;100017.97;;;14.80;62.72
70930;BME280;58588;48.102;19.682;2023-04-10T11:16:20;100016.56;;;15.45;64.30
70930;BME280;58588;48.102;19.682;2023-04-10T11:19:22;100008.13;;;16.01;60.38
70930;BME280;58588;48.102;19.682;2023-04-10T11:22:25;100004.56;;;16.33;60.84
70930;BME280;58588;48.102;19.682;2023-04-10T11:25:47;100003.50;;;16.74;55.76
70930;BME280;58588;48.102;19.682;2023-04-10T11:28:51;99995.72;;;16.65;59.86
70930;BME280;58588;48.102;19.682;2023-04-10T11:31:55;99991.28;;;16.90;57.65
70930;BME280;58588;48.102;19.682;2023-04-10T11:34:57;99989.59;;;16.89;57.79
70930;BME280;58588;48.102;19.682;2023-04-10T11:38:10;99983.00;;;17.55;55.54
70930;BME280;58588;48.102;19.682;2023-04-10T11:41:12;99977.00;;;17.78;52.99
70930;BME280;58588;48.102;19.682;2023-04-10T11:44:17;99965.75;;;17.29;52.40
70930;BME280;58588;48.102;19.682;2023-04-10T11:47:21;99968.25;;;17.62;52.28
70930;BME280;58588;48.102;19.682;2023-04-10T11:50:27;99962.28;;;17.09;53.54
70930;BME280;58588;48.102;19.682;2023-04-10T11:53:31;99965.59;;;17.18;52.40
70930;BME280;58588;48.102;19.682;2023-04-10T11:56:34;99958.09;;;17.45;52.53
70930;BME280;58588;48.102;19.682;2023-04-10T11:59:37;99953.03;;;17.17;51.68
70930;BME280;58588;48.102;19.682;2023-04-10T12:02:52;99942.44;;;16.95;50.91
70930;BME280;58588;48.102;19.682;2023-04-10T12:05:54;99939.88;;;17.77;50.26
70930;BME280;58588;48.102;19.682;2023-04-10T12:08:56;99939.16;;;17.56;49.07
70930;BME280;58588;48.102;19.682;2023-04-10T12:11:59;99935.91;;;18.23;51.54
70930;BME280;58588;48.102;19.682;2023-04-10T12:15:25;99931.97;;;18.18;46.42
70930;BME280;58588;48.102;19.682;2023-04-10T12:18:28;99923.81;;;17.94;51.50
70930;BME280;58588;48.102;19.682;2023-04-10T12:21:31;99917.56;;;18.11;50.03
70930;BME280;58588;48.102;19.682;2023-04-10T12:24:43;99910.53;;;17.97;51.52
70930;BME280;58588;48.102;19.682;2023-04-10T12:27:48;99901.09;;;17.68;48.40
70930;BME280;58588;48.102;19.682;2023-04-10T12:30:53;99895.84;;;17.98;49.23
70930;BME280;58588;48.102;19.682;2023-04-10T12:33:55;99887.22;;;18.01;49.26
70930;BME280;58588;48.102;19.682;2023-04-10T12:36:58;99883.84;;;18.24;47.96
70930;BME280;58588;48.102;19.682;2023-04-10T12:40:05;99870.13;;;18.31;44.73
70930;BME280;58588;48.102;19.682;2023-04-10T12:43:12;99861.28;;;18.47;44.13
70930;BME280;58588;48.102;19.682;2023-04-10T12:46:32;99864.25;;;19.12;46.52
70930;BME280;58588;48.102;19.682;2023-04-10T12:49:35;99858.75;;;19.42;47.37
70930;BME280;58588;48.102;19.682;2023-04-10T12:52:39;99852.34;;;19.48;44.18
70930;BME280;58588;48.102;19.682;2023-04-10T12:55:55;99848.44;;;19.56;45.54
70930;BME280;58588;48.102;19.682;2023-04-10T12:59:05;99843.13;;;19.73;47.62
70930;BME280;58588;48.102;19.682;2023-04-10T13:02:09;99835.53;;;19.75;45.69
70930;BME280;58588;48.102;19.682;2023-04-10T13:05:11;99827.81;;;20.59;44.42
70930;BME280;58588;48.102;19.682;2023-04-10T13:08:13;99819.97;;;20.51;43.81
70930;BME280;58588;48.102;19.682;2023-04-10T13:11:15;99813.47;;;20.17;42.36
70930;BME280;58588;48.102;19.682;2023-04-10T13:14:18;99810.78;;;19.70;45.48
70930;BME280;58588;48.102;19.682;2023-04-10T13:17:23;99804.22;;;19.06;46.85
70930;BME280;58588;48.102;19.682;2023-04-10T13:20:27;99803.75;;;20.09;44.16
70930;BME280;58588;48.102;19.682;2023-04-10T13:23:29;99789.19;;;20.09;47.39
70930;BME280;58588;48.102;19.682;2023-04-10T13:26:31;99793.75;;;19.56;44.92
70930;BME280;58588;48.102;19.682;2023-04-10T13:29:33;99779.44;;;20.13;45.64
70930;BME280;58588;48.102;19.682;2023-04-10T13:32:40;99780.09;;;19.91;44.99
70930;BME280;58588;48.102;19.682;2023-04-10T13:35:42;99778.88;;;19.52;44.24
70930;BME280;58588;48.102;19.682;2023-04-10T13:38:44;99775.22;;;19.58;48.27
70930;BME280;58588;48.102;19.682;2023-04-10T13:41:47;99769.97;;;19.92;44.67
70930;BME280;58588;48.102;19.682;2023-04-10T13:44:49;99770.88;;;18.74;47.15
70930;BME280;58588;48.102;19.682;2023-04-10T13:47:52;99771.81;;;20.03;44.89
70930;BME280;58588;48.102;19.682;2023-04-10T13:50:54;99762.13;;;20.36;43.68
70930;BME280;58588;48.102;19.682;2023-04-10T13:53:56;99760.72;;;20.62;44.39
70930;BME280;58588;48.102;19.682;2023-04-10T13:56:58;99755.44;;;20.72;43.76
70930;BME280;58588;48.102;19.682;2023-04-10T14:00:00;99751.56;;;21.30;41.94
70930;BME280;58588;48.102;19.682;2023-04-10T14:03:05;99746.94;;;21.52;40.56
70930;BME280;58588;48.102;19.682;2023-04-10T14:06:09;99742.78;;;21.16;41.25
70930;BME280;58588;48.102;19.682;2023-04-10T14:09:11;99737.41;;;21.38;41.80
70930;BME280;58588;48.102;19.682;2023-04-10T14:12:13;99736.84;;;20.74;41.17
70930;BME280;58588;48.102;19.682;2023-04-10T14:15:16;99722.72;;;20.65;41.74
70930;BME280;58588;48.102;19.682;2023-04-10T14:18:20;99722.28;;;19.76;45.99
70930;BME280;58588;48.102;19.682;2023-04-10T14:21:22;99717.78;;;19.58;44.83
70930;BME280;58588;48.102;19.682;2023-04-10T14:24:24;99718.97;;;19.74;45.65
70930;BME280;58588;48.102;19.682;2023-04-10T14:27:31;99715.56;;;20.47;44.58
70930;BME280;58588;48.102;19.682;2023-04-10T14:30:49;99708.72;;;19.46;45.99
70930;BME280;58588;48.102;19.682;2023-04-10T14:33:52;99709.88;;;20.25;47.31
70930;BME280;58588;48.102;19.682;2023-04-10T14:36:54;99699.25;;;21.03;44.79
70930;BME280;58588;48.102;19.682;2023-04-10T14:39:58;99695.41;;;21.76;43.54
70930;BME280;58588;48.102;19.682;2023-04-10T14:43:00;99688.47;;;21.30;41.58
70930;BME280;58588;48.102;19.682;2023-04-10T14:46:02;99705.97;;;20.78;42.13
70930;BME280;58588;48.102;19.682;2023-04-10T14:49:09;99704.09;;;20.22;42.94
70930;BME280;58588;48.102;19.682;2023-04-10T14:52:11;99702.53;;;19.74;44.00
70930;BME280;58588;48.102;19.682;2023-04-10T14:55:14;99697.19;;;19.44;43.67
70930;BME280;58588;48.102;19.682;2023-04-10T14:58:16;99702.03;;;18.95;44.24
70930;BME280;58588;48.102;19.682;2023-04-10T15:01:18;99703.19;;;18.45;43.86
70930;BME280;58588;48.102;19.682;2023-04-10T15:04:21;99691.47;;;18.57;46.35
70930;BME280;58588;48.102;19.682;2023-04-10T15:07:23;99693.53;;;18.31;52.83
70930;BME280;58588;48.102;19.682;2023-04-10T15:10:28;99694.84;;;18.10;53.88
70930;BME280;58588;48.102;19.682;2023-04-10T15:13:30;99693.06;;;18.34;50.34
70930;BME280;58588;48.102;19.682;2023-04-10T15:16:32;99694.03;;;18.40;50.88
70930;BME280;58588;48.102;19.682;2023-04-10T15:19:35;99690.28;;;18.23;49.13
70930;BME280;58588;48.102;19.682;2023-04-10T15:22:37;99686.09;;;17.90;50.91
70930;BME280;58588;48.102;19.682;2023-04-10T15:25:42;99694.00;;;17.36;50.82
70930;BME280;58588;48.102;19.682;2023-04-10T15:28:44;99692.91;;;17.81;49.66
70930;BME280;58588;48.102;19.682;2023-04-10T15:31:46;99686.28;;;18.25;48.89
70930;BME280;58588;48.102;19.682;2023-04-10T15:34:52;99680.19;;;19.42;46.14
70930;BME280;58588;48.102;19.682;2023-04-10T15:37:54;99678.66;;;19.11;46.37
70930;BME280;58588;48.102;19.682;2023-04-10T15:41:07;99680.88;;;20.13;44.89
70930;BME280;58588;48.102;19.682;2023-04-10T15:44:10;99670.75;;;19.73;44.74
70930;BME280;58588;48.102;19.682;2023-04-10T15:47:13;99661.97;;;18.89;44.41
70930;BME280;58588;48.102;19.682;2023-04-10T15:50:17;99670.94;;;18.96;45.40
70930;BME280;58588;48.102;19.682;2023-04-10T15:53:19;99665.84;;;18.28;45.07
70930;BME280;58588;48.102;19.682;2023-04-10T15:56:21;99666.13;;;18.38;46.58